sensor_id;sensor_type;location;lat;lon;timestamp;P1;durP1;ratioP1;P2;durP2;ratioP2
26271;SDS011;13997;48.902;12.472;2022-09-01T00:00:11;10.38;;;6.85;;
26271;SDS011;13997;48.902;12.472;2022-09-01T00:06:11;13.00;;;7.22;;
26271;SDS011;13997;48.902;12.472;2022-09-01T00:08:37;10.82;;;7.40;;
26271;SDS011;13997;48.902;12.472;2022-09-01T00:11:02;13.38;;;7.43;;
26271;SDS011;13997;48.902;12.472;2022-09-01T00:13:28;12.38;;;6.88;;
26271;SDS011;13997;48.902;12.472;2022-09-01T00:15:57;10.73;;;6.90;;
26271;SDS011;13997;48.902;12.472;2022-09-01T00:18:24;14.90;;;7.38;;
26271;SDS011;13997;48.902;12.472;2022-09-01T00:20:50;11.10;;;7.43;;
26271;SDS011;13997;48.902;12.472;2022-09-01T00:23:15;11.88;;;7.20;;
26271;SDS011;13997;48.902;12.472;2022-09-01T00:25:41;16.10;;;7.80;;
26271;SDS011;13997;48.902;12.472;2022-09-01T00:28:06;17.30;;;8.10;;
26271;SDS011;13997;48.902;12.472;2022-09-01T00:30:32;10.60;;;8.02;;
26271;SDS011;13997;48.902;12.472;2022-09-01T00:32:58;12.60;;;8.05;;
26271;SDS011;13997;48.902;12.472;2022-09-01T00:35:23;15.68;;;8.95;;
26271;SDS011;13997;48.902;12.472;2022-09-01T00:37:49;20.58;;;9.85;;
26271;SDS011;13997;48.902;12.472;2022-09-01T00:40:15;10.75;;;9.05;;
26271;SDS011;13997;48.902;12.472;2022-09-01T00:42:42;15.32;;;9.30;;
26271;SDS011;13997;48.902;12.472;2022-09-01T00:45:09;11.82;;;8.63;;
26271;SDS011;13997;48.902;12.472;2022-09-01T00:47:35;14.82;;;9.00;;
26271;SDS011;13997;48.902;12.472;2022-09-01T00:50:02;12.90;;;8.77;;
26271;SDS011;13997;48.902;12.472;2022-09-01T00:52:31;12.00;;;8.27;;
26271;SDS011;13997;48.902;12.472;2022-09-01T00:55:02;10.15;;;8.60;;
26271;SDS011;13997;48.902;12.472;2022-09-01T00:57:33;10.15;;;7.65;;
26271;SDS011;13997;48.902;12.472;2022-09-01T01:00:00;8.30;;;7.45;;
26271;SDS011;13997;48.902;12.472;2022-09-01T01:02:32;15.15;;;7.93;;
26271;SDS011;13997;48.902;12.472;2022-09-01T01:04:57;10.73;;;7.85;;
26271;SDS011;13997;48.902;12.472;2022-09-01T01:07:24;13.15;;;8.38;;
26271;SDS011;13997;48.902;12.472;2022-09-01T01:09:52;8.23;;;7.35;;
26271;SDS011;13997;48.902;12.472;2022-09-01T01:12:18;10.15;;;7.88;;
26271;SDS011;13997;48.902;12.472;2022-09-01T01:14:45;12.57;;;8.45;;
26271;SDS011;13997;48.902;12.472;2022-09-01T01:17:14;13.05;;;7.85;;
26271;SDS011;13997;48.902;12.472;2022-09-01T01:26:09;15.43;;;8.98;;
26271;SDS011;13997;48.902;12.472;2022-09-01T01:28:22;16.73;;;9.85;;
26271;SDS011;13997;48.902;12.472;2022-09-01T01:30:59;16.52;;;9.43;;
26271;SDS011;13997;48.902;12.472;2022-09-01T01:33:50;15.30;;;9.68;;
26271;SDS011;13997;48.902;12.472;2022-09-01T01:36:22;16.67;;;9.98;;
26271;SDS011;13997;48.902;12.472;2022-09-01T01:38:56;14.43;;;9.57;;
26271;SDS011;13997;48.902;12.472;2022-09-01T01:41:25;13.02;;;8.98;;
26271;SDS011;13997;48.902;12.472;2022-09-01T01:43:53;10.38;;;8.85;;
26271;SDS011;13997;48.902;12.472;2022-09-01T01:46:22;12.70;;;8.70;;
26271;SDS011;13997;48.902;12.472;2022-09-01T01:48:49;12.68;;;9.75;;
26271;SDS011;13997;48.902;12.472;2022-09-01T01:51:16;11.70;;;8.90;;
26271;SDS011;13997;48.902;12.472;2022-09-01T01:53:45;13.52;;;9.30;;
26271;SDS011;13997;48.902;12.472;2022-09-01T01:56:12;12.90;;;9.43;;
26271;SDS011;13997;48.902;12.472;2022-09-01T01:58:37;13.32;;;9.13;;
26271;SDS011;13997;48.902;12.472;2022-09-01T02:01:05;11.93;;;8.43;;
26271;SDS011;13997;48.902;12.472;2022-09-01T02:03:33;12.68;;;9.30;;
26271;SDS011;13997;48.902;12.472;2022-09-01T02:06:02;9.90;;;8.50;;
26271;SDS011;13997;48.902;12.472;2022-09-01T02:08:32;13.63;;;9.00;;
26271;SDS011;13997;48.902;12.472;2022-09-01T02:11:00;10.77;;;9.05;;
26271;SDS011;13997;48.902;12.472;2022-09-01T02:13:26;14.13;;;8.90;;
26271;SDS011;13997;48.902;12.472;2022-09-01T02:15:55;12.40;;;9.10;;
26271;SDS011;13997;48.902;12.472;2022-09-01T02:18:37;10.85;;;8.35;;
26271;SDS011;13997;48.902;12.472;2022-09-01T02:21:08;13.15;;;8.50;;
26271;SDS011;13997;48.902;12.472;2022-09-01T02:23:38;13.23;;;8.45;;
26271;SDS011;13997;48.902;12.472;2022-09-01T02:26:04;17.45;;;9.60;;
26271;SDS011;13997;48.902;12.472;2022-09-01T02:28:34;15.52;;;10.18;;
26271;SDS011;13997;48.902;12.472;2022-09-01T02:31:01;12.80;;;8.48;;
26271;SDS011;13997;48.902;12.472;2022-09-01T02:33:29;12.10;;;8.88;;
26271;SDS011;13997;48.902;12.472;2022-09-01T02:35:58;16.23;;;8.90;;
26271;SDS011;13997;48.902;12.472;2022-09-01T02:38:26;13.02;;;9.18;;
26271;SDS011;13997;48.902;12.472;2022-09-01T02:40:54;10.48;;;9.10;;
26271;SDS011;13997;48.902;12.472;2022-09-01T02:43:22;13.68;;;10.35;;
26271;SDS011;13997;48.902;12.472;2022-09-01T02:45:52;19.85;;;10.52;;
26271;SDS011;13997;48.902;12.472;2022-09-01T02:48:23;15.43;;;12.30;;
26271;SDS011;13997;48.902;12.472;2022-09-01T02:50:51;17.35;;;11.15;;
26271;SDS011;13997;48.902;12.472;2022-09-01T02:53:17;18.30;;;12.60;;
26271;SDS011;13997;48.902;12.472;2022-09-01T02:55:44;17.67;;;11.57;;
26271;SDS011;13997;48.902;12.472;2022-09-01T02:58:09;14.68;;;11.15;;
26271;SDS011;13997;48.902;12.472;2022-09-01T03:00:40;17.50;;;12.43;;
26271;SDS011;13997;48.902;12.472;2022-09-01T03:03:06;16.23;;;11.65;;
26271;SDS011;13997;48.902;12.472;2022-09-01T03:05:33;21.30;;;12.55;;
26271;SDS011;13997;48.902;12.472;2022-09-01T03:08:01;14.30;;;10.65;;
26271;SDS011;13997;48.902;12.472;2022-09-01T03:10:30;13.82;;;11.52;;
26271;SDS011;13997;48.902;12.472;2022-09-01T03:13:03;16.92;;;11.13;;
26271;SDS011;13997;48.902;12.472;2022-09-01T03:15:32;15.73;;;11.25;;
26271;SDS011;13997;48.902;12.472;2022-09-01T03:18:00;14.57;;;10.85;;
26271;SDS011;13997;48.902;12.472;2022-09-01T03:20:28;17.48;;;11.27;;
26271;SDS011;13997;48.902;12.472;2022-09-01T03:22:58;14.03;;;9.63;;
26271;SDS011;13997;48.902;12.472;2022-09-01T03:25:24;11.82;;;10.07;;
26271;SDS011;13997;48.902;12.472;2022-09-01T03:27:53;15.23;;;10.82;;
26271;SDS011;13997;48.902;12.472;2022-09-01T03:30:20;13.88;;;10.32;;
26271;SDS011;13997;48.902;12.472;2022-09-01T03:32:46;12.38;;;9.95;;
26271;SDS011;13997;48.902;12.472;2022-09-01T03:35:12;17.23;;;10.27;;
26271;SDS011;13997;48.902;12.472;2022-09-01T03:37:37;13.15;;;10.68;;
26271;SDS011;13997;48.902;12.472;2022-09-01T03:40:04;18.38;;;10.38;;
26271;SDS011;13997;48.902;12.472;2022-09-01T03:42:33;16.48;;;9.73;;
26271;SDS011;13997;48.902;12.472;2022-09-01T03:45:00;21.17;;;10.43;;
26271;SDS011;13997;48.902;12.472;2022-09-01T03:47:33;13.73;;;10.90;;
26271;SDS011;13997;48.902;12.472;2022-09-01T03:50:05;14.50;;;11.55;;
26271;SDS011;13997;48.902;12.472;2022-09-01T03:52:37;13.23;;;11.70;;
26271;SDS011;13997;48.902;12.472;2022-09-01T03:55:04;17.65;;;11.50;;
26271;SDS011;13997;48.902;12.472;2022-09-01T03:57:30;19.73;;;12.38;;
26271;SDS011;13997;48.902;12.472;2022-09-01T03:59:55;15.55;;;11.68;;
26271;SDS011;13997;48.902;12.472;2022-09-01T04:02:21;18.25;;;12.15;;
26271;SDS011;13997;48.902;12.472;2022-09-01T04:04:47;14.38;;;11.75;;
26271;SDS011;13997;48.902;12.472;2022-09-01T04:07:12;22.90;;;13.18;;
26271;SDS011;13997;48.902;12.472;2022-09-01T04:09:38;19.27;;;14.15;;
26271;SDS011;13997;48.902;12.472;2022-09-01T04:12:04;20.83;;;13.55;;
26271;SDS011;13997;48.902;12.472;2022-09-01T04:14:34;18.52;;;13.18;;
26271;SDS011;13997;48.902;12.472;2022-09-01T04:17:00;15.45;;;10.68;;
26271;SDS011;13997;48.902;12.472;2022-09-01T04:19:44;16.38;;;11.65;;
26271;SDS011;13997;48.902;12.472;2022-09-01T04:22:09;21.80;;;14.93;;
26271;SDS011;13997;48.902;12.472;2022-09-01T04:24:38;23.58;;;16.50;;
26271;SDS011;13997;48.902;12.472;2022-09-01T04:27:09;24.83;;;12.20;;
26271;SDS011;13997;48.902;12.472;2022-09-01T04:29:35;15.15;;;12.93;;
26271;SDS011;13997;48.902;12.472;2022-09-01T04:32:04;21.20;;;13.82;;
26271;SDS011;13997;48.902;12.472;2022-09-01T04:34:34;15.57;;;12.02;;
26271;SDS011;13997;48.902;12.472;2022-09-01T04:39:34;13.85;;;10.68;;
26271;SDS011;13997;48.902;12.472;2022-09-01T04:42:00;14.85;;;11.20;;
26271;SDS011;13997;48.902;12.472;2022-09-01T04:44:29;14.00;;;10.40;;
26271;SDS011;13997;48.902;12.472;2022-09-01T04:46:55;14.38;;;11.07;;
26271;SDS011;13997;48.902;12.472;2022-09-01T04:49:21;13.52;;;11.05;;
26271;SDS011;13997;48.902;12.472;2022-09-01T04:51:48;20.90;;;11.07;;
26271;SDS011;13997;48.902;12.472;2022-09-01T04:54:16;11.30;;;10.10;;
26271;SDS011;13997;48.902;12.472;2022-09-01T04:56:44;16.20;;;10.77;;
26271;SDS011;13997;48.902;12.472;2022-09-01T04:59:13;16.83;;;10.48;;
26271;SDS011;13997;48.902;12.472;2022-09-01T05:01:39;13.80;;;9.98;;
26271;SDS011;13997;48.902;12.472;2022-09-01T05:04:13;13.38;;;9.75;;
26271;SDS011;13997;48.902;12.472;2022-09-01T05:06:42;14.13;;;10.10;;
26271;SDS011;13997;48.902;12.472;2022-09-01T05:09:10;12.15;;;9.50;;
26271;SDS011;13997;48.902;12.472;2022-09-01T05:11:37;10.95;;;8.93;;
26271;SDS011;13997;48.902;12.472;2022-09-01T05:14:05;12.38;;;9.20;;
26271;SDS011;13997;48.902;12.472;2022-09-01T05:16:31;15.18;;;9.93;;
26271;SDS011;13997;48.902;12.472;2022-09-01T05:18:58;12.65;;;9.07;;
26271;SDS011;13997;48.902;12.472;2022-09-01T05:21:25;11.68;;;9.18;;
26271;SDS011;13997;48.902;12.472;2022-09-01T05:23:53;11.32;;;8.00;;
26271;SDS011;13997;48.902;12.472;2022-09-01T05:26:22;10.38;;;9.23;;
26271;SDS011;13997;48.902;12.472;2022-09-01T05:28:51;10.05;;;8.98;;
26271;SDS011;13997;48.902;12.472;2022-09-01T05:31:19;9.23;;;8.20;;
26271;SDS011;13997;48.902;12.472;2022-09-01T05:33:46;9.43;;;8.45;;
26271;SDS011;13997;48.902;12.472;2022-09-01T05:36:14;11.40;;;8.25;;
26271;SDS011;13997;48.902;12.472;2022-09-01T05:38:43;12.82;;;8.85;;
26271;SDS011;13997;48.902;12.472;2022-09-01T05:41:10;9.77;;;8.70;;
26271;SDS011;13997;48.902;12.472;2022-09-01T05:43:41;9.82;;;8.23;;
26271;SDS011;13997;48.902;12.472;2022-09-01T05:46:10;15.30;;;9.30;;
26271;SDS011;13997;48.902;12.472;2022-09-01T05:48:39;12.15;;;8.52;;
26271;SDS011;13997;48.902;12.472;2022-09-01T05:51:07;13.25;;;9.38;;
26271;SDS011;13997;48.902;12.472;2022-09-01T05:53:33;11.05;;;8.65;;
26271;SDS011;13997;48.902;12.472;2022-09-01T05:56:00;11.10;;;9.20;;
26271;SDS011;13997;48.902;12.472;2022-09-01T05:58:30;10.98;;;9.07;;
26271;SDS011;13997;48.902;12.472;2022-09-01T06:00:57;12.18;;;9.57;;
26271;SDS011;13997;48.902;12.472;2022-09-01T06:03:23;13.48;;;9.30;;
26271;SDS011;13997;48.902;12.472;2022-09-01T06:05:51;13.73;;;9.50;;
26271;SDS011;13997;48.902;12.472;2022-09-01T06:08:19;10.90;;;9.02;;
26271;SDS011;13997;48.902;12.472;2022-09-01T06:10:47;13.85;;;10.00;;
26271;SDS011;13997;48.902;12.472;2022-09-01T06:13:14;14.15;;;10.13;;
26271;SDS011;13997;48.902;12.472;2022-09-01T06:15:41;13.52;;;9.80;;
26271;SDS011;13997;48.902;12.472;2022-09-01T06:18:09;12.60;;;10.27;;
26271;SDS011;13997;48.902;12.472;2022-09-01T06:20:39;13.82;;;10.43;;
26271;SDS011;13997;48.902;12.472;2022-09-01T06:23:06;12.43;;;10.48;;
26271;SDS011;13997;48.902;12.472;2022-09-01T06:25:35;17.60;;;10.70;;
26271;SDS011;13997;48.902;12.472;2022-09-01T06:28:01;10.55;;;9.45;;
26271;SDS011;13997;48.902;12.472;2022-09-01T06:30:28;13.27;;;10.55;;
26271;SDS011;13997;48.902;12.472;2022-09-01T06:32:56;11.68;;;9.38;;
26271;SDS011;13997;48.902;12.472;2022-09-01T06:35:25;17.25;;;10.70;;
26271;SDS011;13997;48.902;12.472;2022-09-01T06:37:53;15.63;;;9.45;;
26271;SDS011;13997;48.902;12.472;2022-09-01T06:40:20;12.82;;;9.25;;
26271;SDS011;13997;48.902;12.472;2022-09-01T06:42:49;20.80;;;10.15;;
26271;SDS011;13997;48.902;12.472;2022-09-01T06:45:17;25.58;;;9.50;;
26271;SDS011;13997;48.902;12.472;2022-09-01T06:47:44;20.58;;;8.48;;
26271;SDS011;13997;48.902;12.472;2022-09-01T06:50:12;33.05;;;8.93;;
26271;SDS011;13997;48.902;12.472;2022-09-01T06:52:40;20.88;;;7.95;;
26271;SDS011;13997;48.902;12.472;2022-09-01T06:55:07;22.25;;;9.05;;
26271;SDS011;13997;48.902;12.472;2022-09-01T06:57:37;17.15;;;8.50;;
26271;SDS011;13997;48.902;12.472;2022-09-01T07:00:09;20.90;;;7.88;;
26271;SDS011;13997;48.902;12.472;2022-09-01T07:02:44;13.98;;;7.43;;
26271;SDS011;13997;48.902;12.472;2022-09-01T07:05:12;12.90;;;7.22;;
26271;SDS011;13997;48.902;12.472;2022-09-01T07:07:47;11.38;;;7.82;;
26271;SDS011;13997;48.902;12.472;2022-09-01T07:10:15;16.58;;;8.07;;
26271;SDS011;13997;48.902;12.472;2022-09-01T07:12:47;10.85;;;7.22;;
26271;SDS011;13997;48.902;12.472;2022-09-01T07:15:13;13.15;;;6.32;;
26271;SDS011;13997;48.902;12.472;2022-09-01T07:17:42;10.98;;;6.20;;
26271;SDS011;13997;48.902;12.472;2022-09-01T07:20:16;8.10;;;5.55;;
26271;SDS011;13997;48.902;12.472;2022-09-01T07:22:45;8.60;;;6.20;;
26271;SDS011;13997;48.902;12.472;2022-09-01T07:25:11;10.43;;;5.40;;
26271;SDS011;13997;48.902;12.472;2022-09-01T07:27:38;7.55;;;5.63;;
26271;SDS011;13997;48.902;12.472;2022-09-01T07:30:05;11.13;;;5.05;;
26271;SDS011;13997;48.902;12.472;2022-09-01T07:32:34;6.35;;;5.22;;
26271;SDS011;13997;48.902;12.472;2022-09-01T07:35:01;6.35;;;4.97;;
26271;SDS011;13997;48.902;12.472;2022-09-01T07:37:28;5.65;;;4.68;;
26271;SDS011;13997;48.902;12.472;2022-09-01T07:39:55;7.60;;;5.15;;
26271;SDS011;13997;48.902;12.472;2022-09-01T07:42:22;6.18;;;4.50;;
26271;SDS011;13997;48.902;12.472;2022-09-01T07:44:48;5.90;;;4.00;;
26271;SDS011;13997;48.902;12.472;2022-09-01T07:47:14;10.32;;;5.05;;
26271;SDS011;13997;48.902;12.472;2022-09-01T07:49:41;6.53;;;5.10;;
26271;SDS011;13997;48.902;12.472;2022-09-01T07:52:07;7.50;;;4.63;;
26271;SDS011;13997;48.902;12.472;2022-09-01T07:54:32;5.10;;;3.90;;
26271;SDS011;13997;48.902;12.472;2022-09-01T07:57:01;5.13;;;4.05;;
26271;SDS011;13997;48.902;12.472;2022-09-01T07:59:27;7.90;;;4.40;;
26271;SDS011;13997;48.902;12.472;2022-09-01T08:01:55;4.30;;;3.78;;
26271;SDS011;13997;48.902;12.472;2022-09-01T08:04:21;8.07;;;4.30;;
26271;SDS011;13997;48.902;12.472;2022-09-01T08:06:47;9.55;;;4.15;;
26271;SDS011;13997;48.902;12.472;2022-09-01T08:09:13;7.68;;;3.90;;
26271;SDS011;13997;48.902;12.472;2022-09-01T08:11:39;7.05;;;3.40;;
26271;SDS011;13997;48.902;12.472;2022-09-01T08:14:05;6.43;;;3.85;;
26271;SDS011;13997;48.902;12.472;2022-09-01T08:16:31;4.38;;;3.67;;
26271;SDS011;13997;48.902;12.472;2022-09-01T08:18:57;5.80;;;3.75;;
26271;SDS011;13997;48.902;12.472;2022-09-01T08:21:23;8.07;;;3.92;;
26271;SDS011;13997;48.902;12.472;2022-09-01T08:23:50;5.00;;;3.60;;
26271;SDS011;13997;48.902;12.472;2022-09-01T08:26:17;6.95;;;3.65;;
26271;SDS011;13997;48.902;12.472;2022-09-01T08:28:45;4.72;;;4.22;;
26271;SDS011;13997;48.902;12.472;2022-09-01T08:31:12;6.82;;;4.47;;
26271;SDS011;13997;48.902;12.472;2022-09-01T08:33:40;5.13;;;4.38;;
26271;SDS011;13997;48.902;12.472;2022-09-01T08:36:07;7.40;;;4.10;;
26271;SDS011;13997;48.902;12.472;2022-09-01T08:38:34;5.15;;;4.45;;
26271;SDS011;13997;48.902;12.472;2022-09-01T08:41:00;6.35;;;4.35;;
26271;SDS011;13997;48.902;12.472;2022-09-01T08:46:11;4.28;;;3.50;;
26271;SDS011;13997;48.902;12.472;2022-09-01T08:49:00;4.30;;;3.90;;
26271;SDS011;13997;48.902;12.472;2022-09-01T08:51:34;5.57;;;4.15;;
26271;SDS011;13997;48.902;12.472;2022-09-01T08:54:13;4.32;;;3.92;;
26271;SDS011;13997;48.902;12.472;2022-09-01T08:56:55;4.68;;;3.78;;
26271;SDS011;13997;48.902;12.472;2022-09-01T08:59:24;5.60;;;4.28;;
26271;SDS011;13997;48.902;12.472;2022-09-01T09:04:46;6.35;;;4.15;;
26271;SDS011;13997;48.902;12.472;2022-09-01T09:07:20;6.47;;;4.15;;
26271;SDS011;13997;48.902;12.472;2022-09-01T09:10:05;4.85;;;4.22;;
26271;SDS011;13997;48.902;12.472;2022-09-01T09:15:42;6.00;;;4.78;;
26271;SDS011;13997;48.902;12.472;2022-09-01T09:20:43;5.40;;;4.43;;
26271;SDS011;13997;48.902;12.472;2022-09-01T09:23:21;6.25;;;4.80;;
26271;SDS011;13997;48.902;12.472;2022-09-01T09:25:52;11.07;;;4.38;;
26271;SDS011;13997;48.902;12.472;2022-09-01T09:28:18;5.50;;;4.05;;
26271;SDS011;13997;48.902;12.472;2022-09-01T09:30:44;8.13;;;3.72;;
26271;SDS011;13997;48.902;12.472;2022-09-01T09:33:09;8.05;;;4.10;;
26271;SDS011;13997;48.902;12.472;2022-09-01T09:36:18;4.05;;;3.63;;
26271;SDS011;13997;48.902;12.472;2022-09-01T09:38:47;4.85;;;4.00;;
26271;SDS011;13997;48.902;12.472;2022-09-01T09:41:30;6.00;;;3.45;;
26271;SDS011;13997;48.902;12.472;2022-09-01T09:44:16;4.93;;;3.83;;
26271;SDS011;13997;48.902;12.472;2022-09-01T09:46:49;6.80;;;4.38;;
26271;SDS011;13997;48.902;12.472;2022-09-01T09:52:16;5.90;;;3.90;;
26271;SDS011;13997;48.902;12.472;2022-09-01T09:57:28;7.43;;;3.72;;
26271;SDS011;13997;48.902;12.472;2022-09-01T10:02:36;5.50;;;3.70;;
26271;SDS011;13997;48.902;12.472;2022-09-01T10:08:01;5.00;;;3.53;;
26271;SDS011;13997;48.902;12.472;2022-09-01T10:12:56;6.32;;;2.90;;
26271;SDS011;13997;48.902;12.472;2022-09-01T10:15:24;3.85;;;2.70;;
26271;SDS011;13997;48.902;12.472;2022-09-01T10:17:52;5.20;;;2.88;;
26271;SDS011;13997;48.902;12.472;2022-09-01T10:20:21;3.70;;;2.13;;
26271;SDS011;13997;48.902;12.472;2022-09-01T10:22:49;5.78;;;2.42;;
26271;SDS011;13997;48.902;12.472;2022-09-01T10:25:18;4.57;;;2.70;;
26271;SDS011;13997;48.902;12.472;2022-09-01T10:27:47;5.57;;;2.70;;
26271;SDS011;13997;48.902;12.472;2022-09-01T10:30:21;5.40;;;2.70;;
26271;SDS011;13997;48.902;12.472;2022-09-01T10:32:55;4.32;;;2.50;;
26271;SDS011;13997;48.902;12.472;2022-09-01T10:35:29;8.13;;;2.50;;
26271;SDS011;13997;48.902;12.472;2022-09-01T10:38:01;5.30;;;2.40;;
26271;SDS011;13997;48.902;12.472;2022-09-01T10:40:35;4.15;;;2.67;;
26271;SDS011;13997;48.902;12.472;2022-09-01T10:46:00;5.13;;;2.28;;
26271;SDS011;13997;48.902;12.472;2022-09-01T10:48:44;3.05;;;2.35;;
26271;SDS011;13997;48.902;12.472;2022-09-01T10:53:43;3.05;;;1.70;;
26271;SDS011;13997;48.902;12.472;2022-09-01T11:04:15;6.18;;;2.45;;
26271;SDS011;13997;48.902;12.472;2022-09-01T11:14:31;3.50;;;1.75;;
26271;SDS011;13997;48.902;12.472;2022-09-01T11:17:10;3.53;;;1.70;;
26271;SDS011;13997;48.902;12.472;2022-09-01T11:19:55;4.03;;;1.75;;
26271;SDS011;13997;48.902;12.472;2022-09-01T11:24:55;5.60;;;1.92;;
26271;SDS011;13997;48.902;12.472;2022-09-01T11:30:15;2.58;;;1.70;;
26271;SDS011;13997;48.902;12.472;2022-09-01T11:32:47;8.13;;;1.75;;
26271;SDS011;13997;48.902;12.472;2022-09-01T11:35:20;3.10;;;1.75;;
26271;SDS011;13997;48.902;12.472;2022-09-01T11:40:19;3.45;;;1.77;;
26271;SDS011;13997;48.902;12.472;2022-09-01T11:42:47;7.45;;;1.90;;
26271;SDS011;13997;48.902;12.472;2022-09-01T11:45:17;2.05;;;1.33;;
26271;SDS011;13997;48.902;12.472;2022-09-01T11:47:49;1.95;;;1.38;;
26271;SDS011;13997;48.902;12.472;2022-09-01T11:50:30;2.30;;;1.48;;
26271;SDS011;13997;48.902;12.472;2022-09-01T11:52:59;5.32;;;1.65;;
26271;SDS011;13997;48.902;12.472;2022-09-01T11:57:57;2.30;;;1.55;;
26271;SDS011;13997;48.902;12.472;2022-09-01T12:00:25;4.97;;;1.70;;
26271;SDS011;13997;48.902;12.472;2022-09-01T12:02:55;4.47;;;2.17;;
26271;SDS011;13997;48.902;12.472;2022-09-01T12:05:30;2.30;;;1.50;;
26271;SDS011;13997;48.902;12.472;2022-09-01T12:08:21;4.53;;;1.60;;
26271;SDS011;13997;48.902;12.472;2022-09-01T12:10:46;4.05;;;1.48;;
26271;SDS011;13997;48.902;12.472;2022-09-01T12:13:22;4.38;;;2.30;;
26271;SDS011;13997;48.902;12.472;2022-09-01T12:15:56;6.00;;;1.70;;
26271;SDS011;13997;48.902;12.472;2022-09-01T12:18:26;5.47;;;1.50;;
26271;SDS011;13997;48.902;12.472;2022-09-01T12:20:54;4.55;;;1.48;;
26271;SDS011;13997;48.902;12.472;2022-09-01T12:25:56;5.18;;;1.48;;
26271;SDS011;13997;48.902;12.472;2022-09-01T12:28:26;5.35;;;1.42;;
26271;SDS011;13997;48.902;12.472;2022-09-01T12:33:22;4.05;;;1.70;;
26271;SDS011;13997;48.902;12.472;2022-09-01T12:35:50;4.63;;;1.77;;
26271;SDS011;13997;48.902;12.472;2022-09-01T12:40:49;4.07;;;1.30;;
26271;SDS011;13997;48.902;12.472;2022-09-01T12:43:29;3.42;;;1.50;;
26271;SDS011;13997;48.902;12.472;2022-09-01T12:46:04;3.42;;;1.50;;
26271;SDS011;13997;48.902;12.472;2022-09-01T12:48:34;3.55;;;1.20;;
26271;SDS011;13997;48.902;12.472;2022-09-01T12:51:19;6.05;;;1.33;;
26271;SDS011;13997;48.902;12.472;2022-09-01T12:54:00;3.33;;;1.30;;
26271;SDS011;13997;48.902;12.472;2022-09-01T12:59:18;3.55;;;1.30;;
26271;SDS011;13997;48.902;12.472;2022-09-01T13:01:46;6.93;;;1.65;;
26271;SDS011;13997;48.902;12.472;2022-09-01T13:04:13;4.03;;;1.33;;
26271;SDS011;13997;48.902;12.472;2022-09-01T13:06:47;3.30;;;1.65;;
26271;SDS011;13997;48.902;12.472;2022-09-01T13:09:13;2.25;;;1.30;;
26271;SDS011;13997;48.902;12.472;2022-09-01T13:11:39;4.70;;;1.42;;
26271;SDS011;13997;48.902;12.472;2022-09-01T13:14:06;3.75;;;1.65;;
26271;SDS011;13997;48.902;12.472;2022-09-01T13:16:33;4.47;;;1.38;;
26271;SDS011;13997;48.902;12.472;2022-09-01T13:19:00;7.80;;;1.40;;
26271;SDS011;13997;48.902;12.472;2022-09-01T13:21:26;2.20;;;1.15;;
26271;SDS011;13997;48.902;12.472;2022-09-01T13:23:52;4.07;;;1.17;;
26271;SDS011;13997;48.902;12.472;2022-09-01T13:26:18;1.80;;;1.30;;
26271;SDS011;13997;48.902;12.472;2022-09-01T13:28:44;4.95;;;1.40;;
26271;SDS011;13997;48.902;12.472;2022-09-01T13:31:10;4.40;;;1.33;;
26271;SDS011;13997;48.902;12.472;2022-09-01T13:33:36;4.50;;;1.50;;
26271;SDS011;13997;48.902;12.472;2022-09-01T13:36:02;3.10;;;1.55;;
26271;SDS011;13997;48.902;12.472;2022-09-01T13:38:29;2.10;;;1.48;;
26271;SDS011;13997;48.902;12.472;2022-09-01T13:40:56;3.47;;;1.50;;
26271;SDS011;13997;48.902;12.472;2022-09-01T13:43:23;2.30;;;1.40;;
26271;SDS011;13997;48.902;12.472;2022-09-01T13:45:51;3.60;;;1.50;;
26271;SDS011;13997;48.902;12.472;2022-09-01T13:48:17;3.80;;;1.30;;
26271;SDS011;13997;48.902;12.472;2022-09-01T13:50:48;2.08;;;1.08;;
26271;SDS011;13997;48.902;12.472;2022-09-01T13:53:16;4.60;;;1.50;;
26271;SDS011;13997;48.902;12.472;2022-09-01T13:55:42;2.63;;;1.50;;
26271;SDS011;13997;48.902;12.472;2022-09-01T13:58:08;4.78;;;1.63;;
26271;SDS011;13997;48.902;12.472;2022-09-01T14:00:36;2.63;;;1.50;;
26271;SDS011;13997;48.902;12.472;2022-09-01T14:03:04;3.60;;;1.70;;
26271;SDS011;13997;48.902;12.472;2022-09-01T14:05:35;3.10;;;1.60;;
26271;SDS011;13997;48.902;12.472;2022-09-01T14:08:03;3.08;;;1.40;;
26271;SDS011;13997;48.902;12.472;2022-09-01T14:10:30;3.22;;;1.60;;
26271;SDS011;13997;48.902;12.472;2022-09-01T14:12:57;8.43;;;2.53;;
26271;SDS011;13997;48.902;12.472;2022-09-01T14:15:23;2.42;;;1.55;;
26271;SDS011;13997;48.902;12.472;2022-09-01T14:17:50;3.35;;;1.70;;
26271;SDS011;13997;48.902;12.472;2022-09-01T14:20:20;7.82;;;1.95;;
26271;SDS011;13997;48.902;12.472;2022-09-01T14:22:48;4.30;;;1.85;;
26271;SDS011;13997;48.902;12.472;2022-09-01T14:25:15;5.75;;;1.60;;
26271;SDS011;13997;48.902;12.472;2022-09-01T14:27:41;8.00;;;1.45;;
26271;SDS011;13997;48.902;12.472;2022-09-01T14:30:08;4.53;;;1.60;;
26271;SDS011;13997;48.902;12.472;2022-09-01T14:32:41;4.93;;;1.55;;
26271;SDS011;13997;48.902;12.472;2022-09-01T14:35:06;7.80;;;1.67;;
26271;SDS011;13997;48.902;12.472;2022-09-01T14:37:33;3.28;;;1.70;;
26271;SDS011;13997;48.902;12.472;2022-09-01T14:40:01;4.40;;;1.60;;
26271;SDS011;13997;48.902;12.472;2022-09-01T14:42:27;2.33;;;1.75;;
26271;SDS011;13997;48.902;12.472;2022-09-01T14:44:53;3.80;;;1.77;;
26271;SDS011;13997;48.902;12.472;2022-09-01T14:47:19;4.88;;;1.80;;
26271;SDS011;13997;48.902;12.472;2022-09-01T14:49:48;6.82;;;2.28;;
26271;SDS011;13997;48.902;12.472;2022-09-01T14:52:14;2.58;;;1.58;;
26271;SDS011;13997;48.902;12.472;2022-09-01T14:54:42;4.57;;;1.88;;
26271;SDS011;13997;48.902;12.472;2022-09-01T14:57:07;4.18;;;1.70;;
26271;SDS011;13997;48.902;12.472;2022-09-01T14:59:34;5.20;;;1.58;;
26271;SDS011;13997;48.902;12.472;2022-09-01T15:02:00;6.60;;;2.80;;
26271;SDS011;13997;48.902;12.472;2022-09-01T15:04:26;6.75;;;2.25;;
26271;SDS011;13997;48.902;12.472;2022-09-01T15:06:52;4.03;;;1.60;;
26271;SDS011;13997;48.902;12.472;2022-09-01T15:09:18;7.60;;;1.88;;
26271;SDS011;13997;48.902;12.472;2022-09-01T15:11:44;5.00;;;1.52;;
26271;SDS011;13997;48.902;12.472;2022-09-01T15:14:09;3.92;;;1.48;;
26271;SDS011;13997;48.902;12.472;2022-09-01T15:16:35;4.13;;;1.60;;
26271;SDS011;13997;48.902;12.472;2022-09-01T15:19:09;4.82;;;1.75;;
26271;SDS011;13997;48.902;12.472;2022-09-01T15:21:36;2.70;;;1.40;;
26271;SDS011;13997;48.902;12.472;2022-09-01T15:24:04;4.85;;;1.35;;
26271;SDS011;13997;48.902;12.472;2022-09-01T15:26:31;2.22;;;1.25;;
26271;SDS011;13997;48.902;12.472;2022-09-01T15:28:57;3.38;;;1.52;;
26271;SDS011;13997;48.902;12.472;2022-09-01T15:31:24;2.55;;;1.20;;
26271;SDS011;13997;48.902;12.472;2022-09-01T15:33:53;4.88;;;1.23;;
26271;SDS011;13997;48.902;12.472;2022-09-01T15:36:20;3.58;;;1.80;;
26271;SDS011;13997;48.902;12.472;2022-09-01T15:38:47;2.33;;;1.15;;
26271;SDS011;13997;48.902;12.472;2022-09-01T15:41:16;4.80;;;1.88;;
26271;SDS011;13997;48.902;12.472;2022-09-01T15:43:42;3.90;;;1.45;;
26271;SDS011;13997;48.902;12.472;2022-09-01T15:46:08;3.58;;;1.80;;
26271;SDS011;13997;48.902;12.472;2022-09-01T15:48:33;3.72;;;1.73;;
26271;SDS011;13997;48.902;12.472;2022-09-01T15:51:42;4.03;;;1.60;;
26271;SDS011;13997;48.902;12.472;2022-09-01T15:53:48;4.05;;;1.70;;